sensor_id;sensor_type;location;lat;lon;timestamp;pressure;altitude;pressure_sealevel;temperature;humidity
72896;BME280;61036;53.224;6.554;2023-06-14T00:00:39;101761.47;;;21.24;78.77
72896;BME280;61036;53.224;6.554;2023-06-14T00:03:09;101752.41;;;21.58;77.29
72896;BME280;61036;53.224;6.554;2023-06-14T00:05:38;101751.34;;;21.59;76.79
72896;BME280;61036;53.224;6.554;2023-06-14T00:08:07;101757.34;;;21.54;78.99
72896;BME280;61036;53.224;6.554;2023-06-14T00:10:34;101751.59;;;21.13;79.36
72896;BME280;61036;53.224;6.554;2023-06-14T00:13:03;101759.19;;;21.45;79.70
72896;BME280;61036;53.224;6.554;2023-06-14T00:15:32;101751.47;;;21.23;80.55
72896;BME280;61036;53.224;6.554;2023-06-14T00:17:58;101752.84;;;21.19;82.39
72896;BME280;61036;53.224;6.554;2023-06-14T00:20:30;101756.00;;;20.80;82.79
72896;BME280;61036;53.224;6.554;2023-06-14T00:22:59;101756.34;;;21.03;83.47
72896;BME280;61036;53.224;6.554;2023-06-14T00:25:25;101746.50;;;21.18;84.52
72896;BME280;61036;53.224;6.554;2023-06-14T00:27:51;101755.47;;;21.02;82.90
72896;BME280;61036;53.224;6.554;2023-06-14T00:30:17;101756.94;;;20.89;85.14
72896;BME280;61036;53.224;6.554;2023-06-14T00:32:44;101756.56;;;21.10;85.12
72896;BME280;61036;53.224;6.554;2023-06-14T00:35:10;101762.84;;;20.22;87.87
72896;BME280;61036;53.224;6.554;2023-06-14T00:37:36;101768.84;;;20.80;86.88
72896;BME280;61036;53.224;6.554;2023-06-14T00:40:02;101769.78;;;20.88;85.40
72896;BME280;61036;53.224;6.554;2023-06-14T00:42:28;101761.25;;;20.91;88.44
72896;BME280;61036;53.224;6.554;2023-06-14T00:44:53;101761.06;;;20.93;89.59
72896;BME280;61036;53.224;6.554;2023-06-14T00:47:19;101761.63;;;20.78;88.49
72896;BME280;61036;53.224;6.554;2023-06-14T00:49:54;101761.28;;;20.73;88.35
72896;BME280;61036;53.224;6.554;2023-06-14T00:52:22;101761.59;;;20.52;91.73
72896;BME280;61036;53.224;6.554;2023-06-14T00:54:50;101762.44;;;20.71;88.90
72896;BME280;61036;53.224;6.554;2023-06-14T00:57:16;101769.56;;;20.46;92.01
72896;BME280;61036;53.224;6.554;2023-06-14T00:59:44;101765.44;;;20.60;91.69
72896;BME280;61036;53.224;6.554;2023-06-14T01:02:10;101763.91;;;20.29;92.66
72896;BME280;61036;53.224;6.554;2023-06-14T01:04:37;101758.53;;;20.73;91.53
72896;BME280;61036;53.224;6.554;2023-06-14T01:10:07;101759.06;;;20.77;92.78
72896;BME280;61036;53.224;6.554;2023-06-14T01:12:50;101760.63;;;20.26;93.96
72896;BME280;61036;53.224;6.554;2023-06-14T01:15:20;101761.28;;;20.55;93.41
72896;BME280;61036;53.224;6.554;2023-06-14T01:17:49;101756.97;;;20.53;94.29
72896;BME280;61036;53.224;6.554;2023-06-14T01:20:22;101753.91;;;20.38;96.86
72896;BME280;61036;53.224;6.554;2023-06-14T01:22:52;101755.06;;;20.36;95.89
72896;BME280;61036;53.224;6.554;2023-06-14T01:25:21;101760.16;;;20.48;94.91
72896;BME280;61036;53.224;6.554;2023-06-14T01:27:53;101754.53;;;20.32;95.85
72896;BME280;61036;53.224;6.554;2023-06-14T01:30:20;101755.94;;;20.54;95.23
72896;BME280;61036;53.224;6.554;2023-06-14T01:32:47;101762.28;;;20.19;96.63
72896;BME280;61036;53.224;6.554;2023-06-14T01:35:13;101751.53;;;19.90;97.48
72896;BME280;61036;53.224;6.554;2023-06-14T01:37:40;101757.66;;;20.19;97.45
72896;BME280;61036;53.224;6.554;2023-06-14T01:40:07;101753.19;;;20.18;97.03
72896;BME280;61036;53.224;6.554;2023-06-14T01:42:36;101767.91;;;20.35;96.76
72896;BME280;61036;53.224;6.554;2023-06-14T01:45:04;101765.16;;;19.99;100.00
72896;BME280;61036;53.224;6.554;2023-06-14T01:47:31;101761.06;;;20.03;99.46
72896;BME280;61036;53.224;6.554;2023-06-14T01:49:57;101761.44;;;19.91;100.00
72896;BME280;61036;53.224;6.554;2023-06-14T01:52:23;101768.63;;;19.74;100.00
72896;BME280;61036;53.224;6.554;2023-06-14T01:54:50;101768.84;;;20.08;100.00
72896;BME280;61036;53.224;6.554;2023-06-14T01:57:16;101765.28;;;19.80;100.00
72896;BME280;61036;53.224;6.554;2023-06-14T01:59:42;101771.78;;;19.97;100.00
72896;BME280;61036;53.224;6.554;2023-06-14T02:02:08;101764.91;;;19.93;100.00
72896;BME280;61036;53.224;6.554;2023-06-14T02:04:33;101764.56;;;19.78;100.00
72896;BME280;61036;53.224;6.554;2023-06-14T02:06:59;101759.19;;;19.86;100.00
72896;BME280;61036;53.224;6.554;2023-06-14T02:09:25;101763.84;;;19.76;100.00
72896;BME280;61036;53.224;6.554;2023-06-14T02:11:53;101772.41;;;19.91;100.00
72896;BME280;61036;53.224;6.554;2023-06-14T02:14:19;101768.72;;;19.45;100.00
72896;BME280;61036;53.224;6.554;2023-06-14T02:16:45;101764.00;;;19.74;100.00
72896;BME280;61036;53.224;6.554;2023-06-14T02:19:17;101770.72;;;20.07;100.00
72896;BME280;61036;53.224;6.554;2023-06-14T02:21:44;101762.78;;;19.86;100.00
72896;BME280;61036;53.224;6.554;2023-06-14T02:24:12;101767.50;;;19.57;100.00
72896;BME280;61036;53.224;6.554;2023-06-14T02:26:38;101766.72;;;19.47;100.00
72896;BME280;61036;53.224;6.554;2023-06-14T02:29:07;101763.75;;;19.95;100.00
72896;BME280;61036;53.224;6.554;2023-06-14T02:31:36;101761.97;;;19.76;100.00
72896;BME280;61036;53.224;6.554;2023-06-14T02:34:02;101765.41;;;19.78;100.00
72896;BME280;61036;53.224;6.554;2023-06-14T02:36:27;101761.97;;;19.76;100.00
72896;BME280;61036;53.224;6.554;2023-06-14T02:38:55;101768.25;;;19.86;100.00
72896;BME280;61036;53.224;6.554;2023-06-14T02:41:24;101768.25;;;19.86;100.00
72896;BME280;61036;53.224;6.554;2023-06-14T02:43:53;101771.34;;;19.64;100.00
72896;BME280;61036;53.224;6.554;2023-06-14T02:46:18;101771.72;;;19.51;100.00
72896;BME280;61036;53.224;6.554;2023-06-14T02:48:44;101766.75;;;19.74;100.00
72896;BME280;61036;53.224;6.554;2023-06-14T02:51:10;101775.91;;;19.83;100.00
72896;BME280;61036;53.224;6.554;2023-06-14T02:53:36;101767.75;;;19.63;100.00
72896;BME280;61036;53.224;6.554;2023-06-14T02:56:02;101774.53;;;19.69;100.00
72896;BME280;61036;53.224;6.554;2023-06-14T02:58:29;101775.41;;;19.70;100.00
72896;BME280;61036;53.224;6.554;2023-06-14T03:00:55;101780.78;;;19.52;100.00
72896;BME280;61036;53.224;6.554;2023-06-14T03:03:21;101787.78;;;19.64;100.00
72896;BME280;61036;53.224;6.554;2023-06-14T03:05:53;101787.38;;;19.59;100.00
72896;BME280;61036;53.224;6.554;2023-06-14T03:08:22;101783.72;;;19.31;100.00
72896;BME280;61036;53.224;6.554;2023-06-14T03:10:53;101792.75;;;19.51;100.00
72896;BME280;61036;53.224;6.554;2023-06-14T03:13:19;101785.25;;;19.53;100.00
72896;BME280;61036;53.224;6.554;2023-06-14T03:15:49;101787.78;;;19.64;100.00
72896;BME280;61036;53.224;6.554;2023-06-14T03:18:19;101783.41;;;19.81;100.00
72896;BME280;61036;53.224;6.554;2023-06-14T03:20:50;101786.56;;;19.86;100.00
72896;BME280;61036;53.224;6.554;2023-06-14T03:23:17;101785.91;;;19.74;100.00
72896;BME280;61036;53.224;6.554;2023-06-14T03:25:43;101792.38;;;19.63;100.00
72896;BME280;61036;53.224;6.554;2023-06-14T03:28:11;101796.13;;;19.35;100.00
72896;BME280;61036;53.224;6.554;2023-06-14T03:30:36;101808.22;;;19.32;100.00
72896;BME280;61036;53.224;6.554;2023-06-14T03:33:02;101796.59;;;19.68;100.00
72896;BME280;61036;53.224;6.554;2023-06-14T03:35:29;101800.91;;;19.60;100.00
72896;BME280;61036;53.224;6.554;2023-06-14T03:37:54;101810.81;;;19.61;100.00
72896;BME280;61036;53.224;6.554;2023-06-14T03:40:20;101800.69;;;19.81;100.00
72896;BME280;61036;53.224;6.554;2023-06-14T03:42:50;101806.94;;;19.64;100.00
72896;BME280;61036;53.224;6.554;2023-06-14T03:45:17;101804.81;;;19.68;100.00
72896;BME280;61036;53.224;6.554;2023-06-14T03:47:42;101802.91;;;19.21;100.00
72896;BME280;61036;53.224;6.554;2023-06-14T03:50:08;101801.25;;;19.85;100.00
72896;BME280;61036;53.224;6.554;2023-06-14T03:52:34;101808.72;;;19.93;100.00
72896;BME280;61036;53.224;6.554;2023-06-14T03:54:59;101818.13;;;19.33;100.00
72896;BME280;61036;53.224;6.554;2023-06-14T03:57:26;101812.56;;;19.62;100.00
72896;BME280;61036;53.224;6.554;2023-06-14T03:59:53;101825.53;;;19.60;100.00
72896;BME280;61036;53.224;6.554;2023-06-14T04:02:19;101814.97;;;20.03;100.00
72896;BME280;61036;53.224;6.554;2023-06-14T04:04:45;101824.09;;;19.66;100.00
72896;BME280;61036;53.224;6.554;2023-06-14T04:07:12;101821.22;;;19.95;100.00
72896;BME280;61036;53.224;6.554;2023-06-14T04:09:38;101823.44;;;20.09;100.00
72896;BME280;61036;53.224;6.554;2023-06-14T04:12:05;101831.31;;;19.95;100.00
72896;BME280;61036;53.224;6.554;2023-06-14T04:14:31;101833.47;;;19.91;100.00
72896;BME280;61036;53.224;6.554;2023-06-14T04:16:59;101832.16;;;20.23;100.00
72896;BME280;61036;53.224;6.554;2023-06-14T04:19:24;101834.41;;;20.27;100.00
72896;BME280;61036;53.224;6.554;2023-06-14T04:21:50;101841.56;;;19.93;100.00
72896;BME280;61036;53.224;6.554;2023-06-14T04:24:17;101834.94;;;19.85;100.00
72896;BME280;61036;53.224;6.554;2023-06-14T04:26:45;101850.38;;;19.86;100.00
72896;BME280;61036;53.224;6.554;2023-06-14T04:29:14;101844.44;;;20.37;100.00
72896;BME280;61036;53.224;6.554;2023-06-14T04:31:45;101846.78;;;20.14;100.00
72896;BME280;61036;53.224;6.554;2023-06-14T04:34:12;101840.53;;;20.39;100.00
72896;BME280;61036;53.224;6.554;2023-06-14T04:36:45;101846.28;;;20.28;100.00
72896;BME280;61036;53.224;6.554;2023-06-14T04:39:16;101844.41;;;20.46;100.00
72896;BME280;61036;53.224;6.554;2023-06-14T04:41:46;101856.97;;;19.94;100.00
72896;BME280;61036;53.224;6.554;2023-06-14T04:44:12;101852.75;;;20.45;100.00
72896;BME280;61036;53.224;6.554;2023-06-14T04:46:42;101858.94;;;20.01;100.00
72896;BME280;61036;53.224;6.554;2023-06-14T04:49:21;101862.72;;;20.46;100.00
72896;BME280;61036;53.224;6.554;2023-06-14T04:51:48;101857.34;;;20.72;100.00
72896;BME280;61036;53.224;6.554;2023-06-14T04:54:23;101861.97;;;21.07;100.00
72896;BME280;61036;53.224;6.554;2023-06-14T04:56:50;101864.81;;;21.23;100.00
72896;BME280;61036;53.224;6.554;2023-06-14T04:59:16;101870.50;;;21.04;100.00
72896;BME280;61036;53.224;6.554;2023-06-14T05:01:42;101863.13;;;21.75;100.00
72896;BME280;61036;53.224;6.554;2023-06-14T05:04:13;101859.88;;;22.13;99.74
72896;BME280;61036;53.224;6.554;2023-06-14T05:06:39;101869.63;;;22.00;100.00
72896;BME280;61036;53.224;6.554;2023-06-14T05:09:06;101876.09;;;22.25;99.75
72896;BME280;61036;53.224;6.554;2023-06-14T05:11:31;101877.19;;;22.48;96.27
72896;BME280;61036;53.224;6.554;2023-06-14T05:13:58;101872.94;;;23.52;91.75
72896;BME280;61036;53.224;6.554;2023-06-14T05:16:23;101878.84;;;23.33;91.35
72896;BME280;61036;53.224;6.554;2023-06-14T05:18:51;101878.34;;;23.04;94.64
72896;BME280;61036;53.224;6.554;2023-06-14T05:21:17;101880.19;;;22.88;94.12
72896;BME280;61036;53.224;6.554;2023-06-14T05:23:44;101884.28;;;22.92;93.44
72896;BME280;61036;53.224;6.554;2023-06-14T05:26:10;101883.91;;;22.62;94.64
72896;BME280;61036;53.224;6.554;2023-06-14T05:28:36;101892.91;;;21.61;98.17
72896;BME280;61036;53.224;6.554;2023-06-14T05:31:02;101890.56;;;22.43;95.64
72896;BME280;61036;53.224;6.554;2023-06-14T05:33:27;101883.56;;;22.65;96.13
72896;BME280;61036;53.224;6.554;2023-06-14T05:35:53;101877.44;;;23.37;90.23
72896;BME280;61036;53.224;6.554;2023-06-14T05:38:18;101895.97;;;23.67;88.29
72896;BME280;61036;53.224;6.554;2023-06-14T05:40:44;101887.91;;;23.49;88.85
72896;BME280;61036;53.224;6.554;2023-06-14T05:43:10;101888.78;;;23.34;91.27
72896;BME280;61036;53.224;6.554;2023-06-14T05:45:35;101893.59;;;22.91;94.24
72896;BME280;61036;53.224;6.554;2023-06-14T05:48:01;101896.63;;;22.71;91.79
72896;BME280;61036;53.224;6.554;2023-06-14T05:50:26;101893.91;;;22.79;91.40
72896;BME280;61036;53.224;6.554;2023-06-14T05:52:53;101898.84;;;22.51;94.16
72896;BME280;61036;53.224;6.554;2023-06-14T05:55:19;101895.16;;;22.26;95.74
72896;BME280;61036;53.224;6.554;2023-06-14T05:57:45;101904.78;;;22.30;95.83
72896;BME280;61036;53.224;6.554;2023-06-14T06:00:11;101897.53;;;22.72;95.37
72896;BME280;61036;53.224;6.554;2023-06-14T06:02:42;101899.22;;;22.56;96.53
72896;BME280;61036;53.224;6.554;2023-06-14T06:05:09;101901.28;;;22.63;95.90
72896;BME280;61036;53.224;6.554;2023-06-14T06:07:36;101904.00;;;22.12;97.85
72896;BME280;61036;53.224;6.554;2023-06-14T06:10:02;101908.72;;;21.41;97.98
72896;BME280;61036;53.224;6.554;2023-06-14T06:12:28;101908.66;;;21.59;97.39
72896;BME280;61036;53.224;6.554;2023-06-14T06:14:54;101908.91;;;23.34;90.61
72896;BME280;61036;53.224;6.554;2023-06-14T06:17:20;101903.38;;;22.85;89.69
72896;BME280;61036;53.224;6.554;2023-06-14T06:19:46;101912.88;;;23.07;94.36
72896;BME280;61036;53.224;6.554;2023-06-14T06:22:11;101909.41;;;22.89;91.32
72896;BME280;61036;53.224;6.554;2023-06-14T06:24:37;101911.00;;;23.16;91.80
72896;BME280;61036;53.224;6.554;2023-06-14T06:27:03;101913.38;;;23.51;89.83
72896;BME280;61036;53.224;6.554;2023-06-14T06:29:28;101914.09;;;23.45;90.64
72896;BME280;61036;53.224;6.554;2023-06-14T06:31:54;101914.06;;;23.54;92.06
72896;BME280;61036;53.224;6.554;2023-06-14T06:34:21;101918.06;;;23.35;90.00
72896;BME280;61036;53.224;6.554;2023-06-14T06:36:47;101926.28;;;23.59;90.80
72896;BME280;61036;53.224;6.554;2023-06-14T06:39:12;101924.88;;;23.80;92.68
72896;BME280;61036;53.224;6.554;2023-06-14T06:41:39;101929.56;;;23.55;87.65
72896;BME280;61036;53.224;6.554;2023-06-14T06:44:06;101927.19;;;23.35;91.50
72896;BME280;61036;53.224;6.554;2023-06-14T06:46:33;101941.75;;;22.95;91.65
72896;BME280;61036;53.224;6.554;2023-06-14T06:48:59;101939.88;;;23.69;87.99
72896;BME280;61036;53.224;6.554;2023-06-14T06:51:25;101937.13;;;23.77;87.47
72896;BME280;61036;53.224;6.554;2023-06-14T06:53:54;101946.59;;;24.47;87.76
72896;BME280;61036;53.224;6.554;2023-06-14T06:56:21;101951.16;;;24.15;86.19
72896;BME280;61036;53.224;6.554;2023-06-14T06:58:49;101949.53;;;24.76;85.98
72896;BME280;61036;53.224;6.554;2023-06-14T07:01:15;101948.25;;;24.56;83.83
72896;BME280;61036;53.224;6.554;2023-06-14T07:03:41;101950.41;;;24.69;83.02
72896;BME280;61036;53.224;6.554;2023-06-14T07:06:06;101946.13;;;24.66;85.28
72896;BME280;61036;53.224;6.554;2023-06-14T07:08:32;101955.06;;;24.29;81.22
72896;BME280;61036;53.224;6.554;2023-06-14T07:10:57;101956.22;;;25.05;83.04
72896;BME280;61036;53.224;6.554;2023-06-14T07:13:23;101961.19;;;24.86;83.27
72896;BME280;61036;53.224;6.554;2023-06-14T07:15:48;101954.25;;;24.91;82.22
72896;BME280;61036;53.224;6.554;2023-06-14T07:18:14;101953.88;;;24.94;80.40
72896;BME280;61036;53.224;6.554;2023-06-14T07:20:39;101965.16;;;24.84;79.31
72896;BME280;61036;53.224;6.554;2023-06-14T07:23:05;101952.00;;;24.94;79.41
72896;BME280;61036;53.224;6.554;2023-06-14T07:25:31;101954.31;;;25.37;79.14
72896;BME280;61036;53.224;6.554;2023-06-14T07:27:57;101957.44;;;25.34;78.15
72896;BME280;61036;53.224;6.554;2023-06-14T07:30:22;101960.78;;;24.98;70.80
72896;BME280;61036;53.224;6.554;2023-06-14T07:32:54;101959.56;;;25.00;67.87
72896;BME280;61036;53.224;6.554;2023-06-14T07:35:20;101953.13;;;25.69;76.82
72896;BME280;61036;53.224;6.554;2023-06-14T07:37:45;101958.59;;;25.16;71.63
72896;BME280;61036;53.224;6.554;2023-06-14T07:40:13;101961.34;;;25.77;67.32
72896;BME280;61036;53.224;6.554;2023-06-14T07:42:38;101959.78;;;26.27;67.30
72896;BME280;61036;53.224;6.554;2023-06-14T07:45:04;101965.22;;;25.68;62.28
72896;BME280;61036;53.224;6.554;2023-06-14T07:47:30;101960.16;;;26.39;63.25
72896;BME280;61036;53.224;6.554;2023-06-14T07:49:56;101961.47;;;26.43;61.48
72896;BME280;61036;53.224;6.554;2023-06-14T07:52:21;101966.25;;;26.34;62.84
72896;BME280;61036;53.224;6.554;2023-06-14T07:54:47;101961.69;;;26.27;63.78
72896;BME280;61036;53.224;6.554;2023-06-14T07:57:13;101957.34;;;25.80;60.36
72896;BME280;61036;53.224;6.554;2023-06-14T07:59:38;101965.88;;;26.08;68.58
72896;BME280;61036;53.224;6.554;2023-06-14T08:02:04;101957.88;;;25.98;60.56
72896;BME280;61036;53.224;6.554;2023-06-14T08:04:29;101955.50;;;26.54;54.93
72896;BME280;61036;53.224;6.554;2023-06-14T08:06:56;101962.16;;;26.30;59.50
72896;BME280;61036;53.224;6.554;2023-06-14T08:09:21;101957.47;;;26.97;57.65
72896;BME280;61036;53.224;6.554;2023-06-14T08:11:47;101950.31;;;27.02;54.11
72896;BME280;61036;53.224;6.554;2023-06-14T08:14:13;101960.97;;;26.84;55.66
72896;BME280;61036;53.224;6.554;2023-06-14T08:16:38;101954.50;;;26.98;54.40
72896;BME280;61036;53.224;6.554;2023-06-14T08:19:03;101956.34;;;27.12;54.39
72896;BME280;61036;53.224;6.554;2023-06-14T08:21:29;101961.53;;;27.37;53.84
72896;BME280;61036;53.224;6.554;2023-06-14T08:23:55;101967.53;;;27.90;48.36
72896;BME280;61036;53.224;6.554;2023-06-14T08:26:21;101969.53;;;28.38;47.08
72896;BME280;61036;53.224;6.554;2023-06-14T08:28:47;101965.59;;;28.60;45.72
72896;BME280;61036;53.224;6.554;2023-06-14T08:31:12;101959.00;;;29.49;42.83
72896;BME280;61036;53.224;6.554;2023-06-14T08:33:38;101961.31;;;30.12;40.51
72896;BME280;61036;53.224;6.554;2023-06-14T08:36:08;101950.84;;;30.01;41.55
72896;BME280;61036;53.224;6.554;2023-06-14T08:38:33;101951.53;;;29.83;40.82
72896;BME280;61036;53.224;6.554;2023-06-14T08:41:00;101953.41;;;30.67;41.17
72896;BME280;61036;53.224;6.554;2023-06-14T08:43:26;101954.09;;;29.71;39.25
72896;BME280;61036;53.224;6.554;2023-06-14T08:45:58;101950.03;;;29.34;39.98
72896;BME280;61036;53.224;6.554;2023-06-14T08:48:26;101949.78;;;29.35;39.44
72896;BME280;61036;53.224;6.554;2023-06-14T08:50:54;101954.38;;;30.41;38.87
72896;BME280;61036;53.224;6.554;2023-06-14T08:53:28;101956.19;;;29.29;38.65
72896;BME280;61036;53.224;6.554;2023-06-14T08:55:54;101938.50;;;31.25;37.53
72896;BME280;61036;53.224;6.554;2023-06-14T08:58:21;101946.81;;;29.97;36.98
72896;BME280;61036;53.224;6.554;2023-06-14T09:00:52;101950.19;;;29.99;37.99
72896;BME280;61036;53.224;6.554;2023-06-14T09:03:18;101937.09;;;31.16;37.30
72896;BME280;61036;53.224;6.554;2023-06-14T09:05:46;101950.03;;;31.85;36.30
72896;BME280;61036;53.224;6.554;2023-06-14T09:08:12;101948.81;;;30.93;37.28
72896;BME280;61036;53.224;6.554;2023-06-14T09:10:39;101959.59;;;31.46;39.25
72896;BME280;61036;53.224;6.554;2023-06-14T09:13:06;101957.00;;;30.36;39.30
72896;BME280;61036;53.224;6.554;2023-06-14T09:15:32;101963.31;;;30.57;38.91
72896;BME280;61036;53.224;6.554;2023-06-14T09:17:57;101960.25;;;29.13;40.63
72896;BME280;61036;53.224;6.554;2023-06-14T09:20:24;101959.50;;;30.44;38.97
72896;BME280;61036;53.224;6.554;2023-06-14T09:22:50;101963.25;;;29.32;37.97
72896;BME280;61036;53.224;6.554;2023-06-14T09:25:15;101969.31;;;30.60;39.23
72896;BME280;61036;53.224;6.554;2023-06-14T09:27:41;101964.97;;;29.93;37.50
72896;BME280;61036;53.224;6.554;2023-06-14T09:30:09;101960.34;;;31.28;38.38
72896;BME280;61036;53.224;6.554;2023-06-14T09:32:39;101960.16;;;31.30;40.76
72896;BME280;61036;53.224;6.554;2023-06-14T09:35:06;101968.59;;;31.73;39.20
72896;BME280;61036;53.224;6.554;2023-06-14T09:37:33;101966.25;;;30.68;36.64
72896;BME280;61036;53.224;6.554;2023-06-14T09:40:00;101961.28;;;31.54;40.54
72896;BME280;61036;53.224;6.554;2023-06-14T09:42:25;101959.53;;;31.53;40.30
72896;BME280;61036;53.224;6.554;2023-06-14T09:44:52;101961.03;;;30.92;38.43
72896;BME280;61036;53.224;6.554;2023-06-14T09:47:19;101957.34;;;31.36;39.27
72896;BME280;61036;53.224;6.554;2023-06-14T09:49:45;101967.94;;;30.76;36.68
72896;BME280;61036;53.224;6.554;2023-06-14T09:52:15;101973.75;;;30.81;39.10
72896;BME280;61036;53.224;6.554;2023-06-14T09:54:42;101964.91;;;30.91;37.29
72896;BME280;61036;53.224;6.554;2023-06-14T09:57:11;101965.38;;;30.23;36.70
72896;BME280;61036;53.224;6.554;2023-06-14T09:59:42;101962.13;;;30.91;37.34
72896;BME280;61036;53.224;6.554;2023-06-14T10:02:28;101963.66;;;30.80;37.99
72896;BME280;61036;53.224;6.554;2023-06-14T10:05:04;101954.41;;;30.86;37.34
72896;BME280;61036;53.224;6.554;2023-06-14T10:10:07;101969.13;;;31.00;37.64
72896;BME280;61036;53.224;6.554;2023-06-14T10:12:33;101965.34;;;30.36;36.66
72896;BME280;61036;53.224;6.554;2023-06-14T10:14:59;101963.28;;;29.78;37.15
72896;BME280;61036;53.224;6.554;2023-06-14T10:20:06;101964.50;;;30.87;36.64
72896;BME280;61036;53.224;6.554;2023-06-14T10:22:43;101963.00;;;30.13;36.47
72896;BME280;61036;53.224;6.554;2023-06-14T10:25:26;101954.72;;;29.40;36.90
72896;BME280;61036;53.224;6.554;2023-06-14T10:28:02;101959.19;;;29.54;36.92
72896;BME280;61036;53.224;6.554;2023-06-14T10:30:28;101944.66;;;29.85;39.65
72896;BME280;61036;53.224;6.554;2023-06-14T10:33:04;101947.53;;;30.44;38.58
72896;BME280;61036;53.224;6.554;2023-06-14T10:35:31;101951.94;;;30.00;39.57
72896;BME280;61036;53.224;6.554;2023-06-14T10:38:06;101958.50;;;30.39;38.85
72896;BME280;61036;53.224;6.554;2023-06-14T10:40:33;101956.75;;;28.91;37.52
72896;BME280;61036;53.224;6.554;2023-06-14T10:42:59;101945.09;;;29.69;39.48
72896;BME280;61036;53.224;6.554;2023-06-14T10:45:24;101947.88;;;29.29;39.25
72896;BME280;61036;53.224;6.554;2023-06-14T10:47:50;101945.50;;;29.59;40.53
72896;BME280;61036;53.224;6.554;2023-06-14T10:50:27;101956.66;;;29.86;38.61
72896;BME280;61036;53.224;6.554;2023-06-14T10:52:54;101951.28;;;29.45;39.14
72896;BME280;61036;53.224;6.554;2023-06-14T10:55:21;101958.69;;;28.98;38.94
72896;BME280;61036;53.224;6.554;2023-06-14T10:57:52;101955.59;;;29.67;41.64
72896;BME280;61036;53.224;6.554;2023-06-14T11:00:22;101959.22;;;29.81;38.60
72896;BME280;61036;53.224;6.554;2023-06-14T11:06:13;101938.31;;;30.43;38.02
72896;BME280;61036;53.224;6.554;2023-06-14T11:11:32;101929.34;;;31.18;41.00
72896;BME280;61036;53.224;6.554;2023-06-14T11:13:59;101938.34;;;30.88;39.54
72896;BME280;61036;53.224;6.554;2023-06-14T11:16:26;101932.13;;;30.48;35.71
72896;BME280;61036;53.224;6.554;2023-06-14T11:18:53;101927.69;;;30.20;38.04
72896;BME280;61036;53.224;6.554;2023-06-14T11:21:19;101937.59;;;30.03;38.37
72896;BME280;61036;53.224;6.554;2023-06-14T11:23:51;101936.22;;;30.39;38.20
72896;BME280;61036;53.224;6.554;2023-06-14T11:26:30;101934.19;;;29.74;35.85
72896;BME280;61036;53.224;6.554;2023-06-14T11:28:58;101922.38;;;29.99;39.11
72896;BME280;61036;53.224;6.554;2023-06-14T11:31:24;101909.38;;;29.59;36.45
72896;BME280;61036;53.224;6.554;2023-06-14T11:33:50;101921.34;;;29.27;40.27
72896;BME280;61036;53.224;6.554;2023-06-14T11:36:16;101913.16;;;30.05;36.11
72896;BME280;61036;53.224;6.554;2023-06-14T11:38:42;101908.97;;;29.62;37.19
72896;BME280;61036;53.224;6.554;2023-06-14T11:41:07;101919.66;;;30.95;36.83
72896;BME280;61036;53.224;6.554;2023-06-14T11:43:33;101908.59;;;30.82;38.52
72896;BME280;61036;53.224;6.554;2023-06-14T11:46:00;101917.72;;;29.53;39.95
72896;BME280;61036;53.224;6.554;2023-06-14T11:48:40;101913.78;;;30.72;37.47
72896;BME280;61036;53.224;6.554;2023-06-14T11:51:05;101910.69;;;30.48;35.91
72896;BME280;61036;53.224;6.554;2023-06-14T11:53:31;101898.75;;;30.35;36.17
72896;BME280;61036;53.224;6.554;2023-06-14T11:55:58;101919.22;;;29.29;37.64
72896;BME280;61036;53.224;6.554;2023-06-14T11:58:23;101904.56;;;30.26;35.06
72896;BME280;61036;53.224;6.554;2023-06-14T12:00:49;101908.41;;;30.32;33.59
72896;BME280;61036;53.224;6.554;2023-06-14T12:03:15;101899.66;;;30.08;35.88
72896;BME280;61036;53.224;6.554;2023-06-14T12:05:40;101906.19;;;30.47;36.21
72896;BME280;61036;53.224;6.554;2023-06-14T12:08:06;101912.78;;;29.95;34.32
72896;BME280;61036;53.224;6.554;2023-06-14T12:10:42;101901.88;;;31.21;34.12
72896;BME280;61036;53.224;6.554;2023-06-14T12:13:09;101899.13;;;30.51;36.29
72896;BME280;61036;53.224;6.554;2023-06-14T12:15:34;101908.06;;;30.98;37.70
72896;BME280;61036;53.224;6.554;2023-06-14T12:18:00;101915.31;;;30.10;34.73
72896;BME280;61036;53.224;6.554;2023-06-14T12:20:29;101895.44;;;30.96;32.54
72896;BME280;61036;53.224;6.554;2023-06-14T12:22:58;101886.06;;;31.47;34.82
72896;BME280;61036;53.224;6.554;2023-06-14T12:28:08;101905.09;;;30.55;32.34
72896;BME280;61036;53.224;6.554;2023-06-14T12:30:35;101905.16;;;30.35;35.08
72896;BME280;61036;53.224;6.554;2023-06-14T12:33:02;101899.59;;;30.80;34.58
72896;BME280;61036;53.224;6.554;2023-06-14T12:35:28;101902.75;;;30.52;33.25
72896;BME280;61036;53.224;6.554;2023-06-14T12:37:54;101898.25;;;30.51;34.13
72896;BME280;61036;53.224;6.554;2023-06-14T12:40:19;101903.84;;;30.51;35.54
72896;BME280;61036;53.224;6.554;2023-06-14T12:42:45;101904.06;;;30.43;35.38
72896;BME280;61036;53.224;6.554;2023-06-14T12:45:13;101905.72;;;30.57;36.11
72896;BME280;61036;53.224;6.554;2023-06-14T12:47:39;101909.31;;;28.93;36.20
72896;BME280;61036;53.224;6.554;2023-06-14T12:50:05;101911.75;;;29.62;35.72
72896;BME280;61036;53.224;6.554;2023-06-14T12:52:30;101894.72;;;30.30;34.15
72896;BME280;61036;53.224;6.554;2023-06-14T12:54:56;101897.25;;;30.32;36.85
72896;BME280;61036;53.224;6.554;2023-06-14T12:57:21;101906.72;;;30.11;35.09
72896;BME280;61036;53.224;6.554;2023-06-14T12:59:47;101902.56;;;29.55;33.75
72896;BME280;61036;53.224;6.554;2023-06-14T13:02:21;101904.53;;;30.85;34.30
72896;BME280;61036;53.224;6.554;2023-06-14T13:04:48;101896.81;;;30.35;34.00